sensor_id;sensor_type;location;lat;lon;timestamp;temperature;humidity
38456;DHT22;24237;50.106;20.014;2024-03-22T00:02:02;12.90;84.40
38456;DHT22;24237;50.106;20.014;2024-03-22T00:04:28;12.80;67.20
38456;DHT22;24237;50.106;20.014;2024-03-22T00:06:53;12.80;59.40
38456;DHT22;24237;50.106;20.014;2024-03-22T00:09:19;12.90;50.30
38456;DHT22;24237;50.106;20.014;2024-03-22T00:11:45;12.90;46.80
38456;DHT22;24237;50.106;20.014;2024-03-22T00:14:11;12.90;52.20
38456;DHT22;24237;50.106;20.014;2024-03-22T00:16:37;12.90;43.90
38456;DHT22;24237;50.106;20.014;2024-03-22T00:19:03;12.90;59.90
38456;DHT22;24237;50.106;20.014;2024-03-22T00:21:29;12.90;57.90
38456;DHT22;24237;50.106;20.014;2024-03-22T00:23:56;12.70;74.10
38456;DHT22;24237;50.106;20.014;2024-03-22T00:26:22;12.60;90.80
38456;DHT22;24237;50.106;20.014;2024-03-22T00:28:48;12.50;98.50
38456;DHT22;24237;50.106;20.014;2024-03-22T00:31:14;12.70;99.90
38456;DHT22;24237;50.106;20.014;2024-03-22T00:33:40;12.70;99.90
38456;DHT22;24237;50.106;20.014;2024-03-22T00:36:05;12.60;99.90
38456;DHT22;24237;50.106;20.014;2024-03-22T00:38:31;12.70;99.90
38456;DHT22;24237;50.106;20.014;2024-03-22T00:40:57;12.60;99.90
38456;DHT22;24237;50.106;20.014;2024-03-22T00:43:23;12.60;99.90
38456;DHT22;24237;50.106;20.014;2024-03-22T00:45:49;12.50;99.90
38456;DHT22;24237;50.106;20.014;2024-03-22T00:48:15;12.50;99.90
38456;DHT22;24237;50.106;20.014;2024-03-22T00:50:40;12.50;99.90
38456;DHT22;24237;50.106;20.014;2024-03-22T00:53:06;12.50;99.90
38456;DHT22;24237;50.106;20.014;2024-03-22T00:55:33;12.60;99.90
38456;DHT22;24237;50.106;20.014;2024-03-22T00:57:59;12.40;99.90
38456;DHT22;24237;50.106;20.014;2024-03-22T01:00:24;12.30;99.90
38456;DHT22;24237;50.106;20.014;2024-03-22T01:02:51;12.40;99.90
38456;DHT22;24237;50.106;20.014;2024-03-22T01:05:17;12.40;99.90
38456;DHT22;24237;50.106;20.014;2024-03-22T01:07:43;12.30;99.90
38456;DHT22;24237;50.106;20.014;2024-03-22T01:10:08;12.40;99.90
38456;DHT22;24237;50.106;20.014;2024-03-22T01:12:34;12.30;99.90
38456;DHT22;24237;50.106;20.014;2024-03-22T01:15:00;12.40;99.90
38456;DHT22;24237;50.106;20.014;2024-03-22T01:17:26;12.40;99.90
38456;DHT22;24237;50.106;20.014;2024-03-22T01:19:52;12.50;99.90
38456;DHT22;24237;50.106;20.014;2024-03-22T01:22:18;12.40;99.90
38456;DHT22;24237;50.106;20.014;2024-03-22T01:24:44;12.40;99.90
38456;DHT22;24237;50.106;20.014;2024-03-22T01:27:10;12.40;99.90
38456;DHT22;24237;50.106;20.014;2024-03-22T01:29:35;12.40;99.90
38456;DHT22;24237;50.106;20.014;2024-03-22T01:32:01;12.40;99.90
38456;DHT22;24237;50.106;20.014;2024-03-22T01:34:28;12.50;99.90
38456;DHT22;24237;50.106;20.014;2024-03-22T01:36:54;12.60;99.90
38456;DHT22;24237;50.106;20.014;2024-03-22T01:39:20;12.60;99.90
38456;DHT22;24237;50.106;20.014;2024-03-22T01:41:50;12.70;99.90
38456;DHT22;24237;50.106;20.014;2024-03-22T01:44:17;12.70;99.90
38456;DHT22;24237;50.106;20.014;2024-03-22T01:46:44;12.50;99.90
38456;DHT22;24237;50.106;20.014;2024-03-22T01:49:14;12.50;99.90
38456;DHT22;24237;50.106;20.014;2024-03-22T01:51:41;12.60;99.90
38456;DHT22;24237;50.106;20.014;2024-03-22T01:54:09;12.50;99.90
38456;DHT22;24237;50.106;20.014;2024-03-22T01:56:38;12.50;99.90
38456;DHT22;24237;50.106;20.014;2024-03-22T01:59:04;12.70;99.90
38456;DHT22;24237;50.106;20.014;2024-03-22T02:01:31;12.80;99.90
38456;DHT22;24237;50.106;20.014;2024-03-22T02:03:56;12.90;99.90
38456;DHT22;24237;50.106;20.014;2024-03-22T02:06:22;12.90;99.90
38456;DHT22;24237;50.106;20.014;2024-03-22T02:08:48;12.90;99.90
38456;DHT22;24237;50.106;20.014;2024-03-22T02:11:13;12.50;99.90
38456;DHT22;24237;50.106;20.014;2024-03-22T02:13:39;12.50;99.90
38456;DHT22;24237;50.106;20.014;2024-03-22T02:16:05;12.60;99.90
38456;DHT22;24237;50.106;20.014;2024-03-22T02:18:31;12.70;99.90
38456;DHT22;24237;50.106;20.014;2024-03-22T02:20:57;12.60;99.90
38456;DHT22;24237;50.106;20.014;2024-03-22T02:23:37;12.60;99.90
38456;DHT22;24237;50.106;20.014;2024-03-22T02:26:04;12.70;99.90
38456;DHT22;24237;50.106;20.014;2024-03-22T02:28:30;12.60;99.90
38456;DHT22;24237;50.106;20.014;2024-03-22T02:30:57;12.90;99.90
38456;DHT22;24237;50.106;20.014;2024-03-22T02:33:23;13.00;99.90
38456;DHT22;24237;50.106;20.014;2024-03-22T02:35:49;12.90;99.90
38456;DHT22;24237;50.106;20.014;2024-03-22T02:38:16;12.80;99.90
38456;DHT22;24237;50.106;20.014;2024-03-22T02:40:43;12.80;99.90
38456;DHT22;24237;50.106;20.014;2024-03-22T02:43:09;12.70;99.90
38456;DHT22;24237;50.106;20.014;2024-03-22T02:45:35;12.70;99.90
38456;DHT22;24237;50.106;20.014;2024-03-22T02:48:00;12.70;1.00
38456;DHT22;24237;50.106;20.014;2024-03-22T02:50:26;12.60;1.00
38456;DHT22;24237;50.106;20.014;2024-03-22T02:52:52;12.70;1.00
38456;DHT22;24237;50.106;20.014;2024-03-22T02:55:17;12.40;1.00
38456;DHT22;24237;50.106;20.014;2024-03-22T02:57:43;12.40;98.80
38456;DHT22;24237;50.106;20.014;2024-03-22T03:00:09;12.40;99.90
38456;DHT22;24237;50.106;20.014;2024-03-22T03:02:35;12.30;99.90
38456;DHT22;24237;50.106;20.014;2024-03-22T03:05:01;12.40;99.90
38456;DHT22;24237;50.106;20.014;2024-03-22T03:07:27;12.50;99.90
38456;DHT22;24237;50.106;20.014;2024-03-22T03:09:55;12.40;99.90
38456;DHT22;24237;50.106;20.014;2024-03-22T03:12:21;12.30;1.00
38456;DHT22;24237;50.106;20.014;2024-03-22T03:14:47;12.40;1.00
38456;DHT22;24237;50.106;20.014;2024-03-22T03:17:12;12.50;1.00
38456;DHT22;24237;50.106;20.014;2024-03-22T03:19:38;12.80;1.00
38456;DHT22;24237;50.106;20.014;2024-03-22T03:22:04;12.70;18.60
38456;DHT22;24237;50.106;20.014;2024-03-22T03:24:30;12.70;99.90
38456;DHT22;24237;50.106;20.014;2024-03-22T03:26:56;12.80;99.90
38456;DHT22;24237;50.106;20.014;2024-03-22T03:29:21;12.70;99.90
38456;DHT22;24237;50.106;20.014;2024-03-22T03:31:47;12.70;99.90
38456;DHT22;24237;50.106;20.014;2024-03-22T03:34:13;12.60;99.90
38456;DHT22;24237;50.106;20.014;2024-03-22T03:36:38;12.60;99.90
38456;DHT22;24237;50.106;20.014;2024-03-22T03:39:04;12.60;99.90
38456;DHT22;24237;50.106;20.014;2024-03-22T03:41:30;12.60;99.90
38456;DHT22;24237;50.106;20.014;2024-03-22T03:43:55;12.50;99.90
38456;DHT22;24237;50.106;20.014;2024-03-22T03:46:21;12.50;99.90
38456;DHT22;24237;50.106;20.014;2024-03-22T03:48:47;12.40;1.00
38456;DHT22;24237;50.106;20.014;2024-03-22T03:51:12;12.40;1.00
38456;DHT22;24237;50.106;20.014;2024-03-22T03:53:38;12.60;99.90
38456;DHT22;24237;50.106;20.014;2024-03-22T03:56:04;12.50;1.00
38456;DHT22;24237;50.106;20.014;2024-03-22T03:58:29;12.80;1.00
38456;DHT22;24237;50.106;20.014;2024-03-22T04:00:55;12.50;1.00
38456;DHT22;24237;50.106;20.014;2024-03-22T04:03:20;12.60;99.90
38456;DHT22;24237;50.106;20.014;2024-03-22T04:05:46;12.70;99.90
38456;DHT22;24237;50.106;20.014;2024-03-22T04:08:12;12.70;99.90
38456;DHT22;24237;50.106;20.014;2024-03-22T04:10:37;12.70;99.90
38456;DHT22;24237;50.106;20.014;2024-03-22T04:13:03;12.50;1.00
38456;DHT22;24237;50.106;20.014;2024-03-22T04:15:29;12.40;16.90
38456;DHT22;24237;50.106;20.014;2024-03-22T04:17:59;12.50;1.00
38456;DHT22;24237;50.106;20.014;2024-03-22T04:20:24;12.30;99.90
38456;DHT22;24237;50.106;20.014;2024-03-22T04:22:50;12.30;99.90
38456;DHT22;24237;50.106;20.014;2024-03-22T04:25:17;12.40;99.90
38456;DHT22;24237;50.106;20.014;2024-03-22T04:27:43;12.20;99.90
38456;DHT22;24237;50.106;20.014;2024-03-22T04:30:09;12.20;1.00
38456;DHT22;24237;50.106;20.014;2024-03-22T04:32:35;12.30;1.00
38456;DHT22;24237;50.106;20.014;2024-03-22T04:35:02;12.30;1.00
38456;DHT22;24237;50.106;20.014;2024-03-22T04:37:27;12.50;43.60
38456;DHT22;24237;50.106;20.014;2024-03-22T04:39:53;12.70;99.90
38456;DHT22;24237;50.106;20.014;2024-03-22T04:42:19;12.80;99.90
38456;DHT22;24237;50.106;20.014;2024-03-22T04:44:45;12.80;99.90
38456;DHT22;24237;50.106;20.014;2024-03-22T04:47:10;12.70;99.90
38456;DHT22;24237;50.106;20.014;2024-03-22T04:49:36;12.90;99.90
38456;DHT22;24237;50.106;20.014;2024-03-22T04:52:01;13.10;99.90
38456;DHT22;24237;50.106;20.014;2024-03-22T04:54:27;13.10;99.90
38456;DHT22;24237;50.106;20.014;2024-03-22T04:56:53;13.20;99.90
38456;DHT22;24237;50.106;20.014;2024-03-22T04:59:18;13.10;99.90
38456;DHT22;24237;50.106;20.014;2024-03-22T05:01:44;13.00;7.80
38456;DHT22;24237;50.106;20.014;2024-03-22T05:04:10;12.90;78.30
38456;DHT22;24237;50.106;20.014;2024-03-22T05:06:35;13.00;40.00
38456;DHT22;24237;50.106;20.014;2024-03-22T05:09:01;13.00;99.90
38456;DHT22;24237;50.106;20.014;2024-03-22T05:11:28;12.90;99.90
38456;DHT22;24237;50.106;20.014;2024-03-22T05:13:54;13.00;99.90
38456;DHT22;24237;50.106;20.014;2024-03-22T05:16:20;13.00;99.90
38456;DHT22;24237;50.106;20.014;2024-03-22T05:18:45;12.90;99.90
38456;DHT22;24237;50.106;20.014;2024-03-22T05:21:11;13.00;99.90
38456;DHT22;24237;50.106;20.014;2024-03-22T05:23:36;13.00;99.90
38456;DHT22;24237;50.106;20.014;2024-03-22T05:26:02;13.00;99.90
38456;DHT22;24237;50.106;20.014;2024-03-22T05:28:29;13.20;1.00
38456;DHT22;24237;50.106;20.014;2024-03-22T05:30:56;13.20;14.10
38456;DHT22;24237;50.106;20.014;2024-03-22T05:33:21;13.10;52.80
38456;DHT22;24237;50.106;20.014;2024-03-22T05:35:47;12.90;99.90
38456;DHT22;24237;50.106;20.014;2024-03-22T05:38:12;13.40;1.00
38456;DHT22;24237;50.106;20.014;2024-03-22T05:40:38;13.10;4.30
38456;DHT22;24237;50.106;20.014;2024-03-22T05:43:04;13.00;99.90
38456;DHT22;24237;50.106;20.014;2024-03-22T05:45:30;13.10;99.90
38456;DHT22;24237;50.106;20.014;2024-03-22T05:47:55;13.20;99.90
38456;DHT22;24237;50.106;20.014;2024-03-22T05:50:21;13.40;77.10
38456;DHT22;24237;50.106;20.014;2024-03-22T05:52:47;13.30;34.80
38456;DHT22;24237;50.106;20.014;2024-03-22T05:55:13;13.20;99.90
38456;DHT22;24237;50.106;20.014;2024-03-22T05:57:38;13.00;1.00
38456;DHT22;24237;50.106;20.014;2024-03-22T06:00:05;13.20;99.90
38456;DHT22;24237;50.106;20.014;2024-03-22T06:02:32;13.10;99.90
38456;DHT22;24237;50.106;20.014;2024-03-22T06:04:58;13.20;1.00
38456;DHT22;24237;50.106;20.014;2024-03-22T06:07:24;13.10;1.00
38456;DHT22;24237;50.106;20.014;2024-03-22T06:09:51;13.30;1.00
38456;DHT22;24237;50.106;20.014;2024-03-22T06:12:18;13.30;99.90
38456;DHT22;24237;50.106;20.014;2024-03-22T06:14:44;13.30;1.00
38456;DHT22;24237;50.106;20.014;2024-03-22T06:17:10;13.30;6.90
38456;DHT22;24237;50.106;20.014;2024-03-22T06:19:36;13.40;1.00
38456;DHT22;24237;50.106;20.014;2024-03-22T06:22:02;13.40;1.00
38456;DHT22;24237;50.106;20.014;2024-03-22T06:24:28;13.40;1.00
38456;DHT22;24237;50.106;20.014;2024-03-22T06:26:54;13.50;1.00
38456;DHT22;24237;50.106;20.014;2024-03-22T06:29:20;13.60;99.90
38456;DHT22;24237;50.106;20.014;2024-03-22T06:31:45;13.70;1.00
38456;DHT22;24237;50.106;20.014;2024-03-22T06:34:11;13.90;99.90
38456;DHT22;24237;50.106;20.014;2024-03-22T06:36:37;13.70;99.90
38456;DHT22;24237;50.106;20.014;2024-03-22T06:39:02;13.80;99.90
38456;DHT22;24237;50.106;20.014;2024-03-22T06:41:33;13.70;99.90
38456;DHT22;24237;50.106;20.014;2024-03-22T06:43:59;13.80;99.90
38456;DHT22;24237;50.106;20.014;2024-03-22T06:46:25;13.90;99.90
38456;DHT22;24237;50.106;20.014;2024-03-22T06:48:51;14.10;99.90
38456;DHT22;24237;50.106;20.014;2024-03-22T06:51:17;14.20;99.90
38456;DHT22;24237;50.106;20.014;2024-03-22T06:53:42;14.10;99.90
38456;DHT22;24237;50.106;20.014;2024-03-22T06:56:08;14.10;99.90
38456;DHT22;24237;50.106;20.014;2024-03-22T06:58:35;14.30;45.00
38456;DHT22;24237;50.106;20.014;2024-03-22T07:01:02;14.30;7.30
38456;DHT22;24237;50.106;20.014;2024-03-22T07:03:28;14.30;1.00
38456;DHT22;24237;50.106;20.014;2024-03-22T07:05:53;14.40;2.70
38456;DHT22;24237;50.106;20.014;2024-03-22T07:08:19;14.30;1.00
38456;DHT22;24237;50.106;20.014;2024-03-22T07:10:44;14.00;99.90
38456;DHT22;24237;50.106;20.014;2024-03-22T07:13:11;13.90;99.90
38456;DHT22;24237;50.106;20.014;2024-03-22T07:15:36;14.10;99.90
38456;DHT22;24237;50.106;20.014;2024-03-22T07:18:02;14.30;50.90
38456;DHT22;24237;50.106;20.014;2024-03-22T07:20:30;14.50;1.00
38456;DHT22;24237;50.106;20.014;2024-03-22T07:22:56;14.30;1.00
38456;DHT22;24237;50.106;20.014;2024-03-22T07:25:21;14.30;1.00
38456;DHT22;24237;50.106;20.014;2024-03-22T07:27:47;14.20;1.00
38456;DHT22;24237;50.106;20.014;2024-03-22T07:30:14;14.70;99.90
38456;DHT22;24237;50.106;20.014;2024-03-22T07:32:40;14.50;99.90
38456;DHT22;24237;50.106;20.014;2024-03-22T07:35:06;14.40;1.00
38456;DHT22;24237;50.106;20.014;2024-03-22T07:37:34;14.20;99.90
38456;DHT22;24237;50.106;20.014;2024-03-22T07:40:01;14.20;1.00
38456;DHT22;24237;50.106;20.014;2024-03-22T07:42:28;14.20;1.00
38456;DHT22;24237;50.106;20.014;2024-03-22T07:44:53;14.10;1.00
38456;DHT22;24237;50.106;20.014;2024-03-22T07:47:19;13.90;99.90
38456;DHT22;24237;50.106;20.014;2024-03-22T07:49:45;14.00;99.90
38456;DHT22;24237;50.106;20.014;2024-03-22T07:52:10;14.00;95.10
38456;DHT22;24237;50.106;20.014;2024-03-22T07:54:36;13.90;99.90
38456;DHT22;24237;50.106;20.014;2024-03-22T07:57:02;14.00;99.90
38456;DHT22;24237;50.106;20.014;2024-03-22T07:59:28;14.10;1.00
38456;DHT22;24237;50.106;20.014;2024-03-22T08:01:53;13.90;99.30
38456;DHT22;24237;50.106;20.014;2024-03-22T08:04:19;13.70;99.90
38456;DHT22;24237;50.106;20.014;2024-03-22T08:06:46;13.40;99.90
38456;DHT22;24237;50.106;20.014;2024-03-22T08:09:11;13.30;1.00
38456;DHT22;24237;50.106;20.014;2024-03-22T08:11:37;13.30;1.00
38456;DHT22;24237;50.106;20.014;2024-03-22T08:14:03;13.60;1.00
38456;DHT22;24237;50.106;20.014;2024-03-22T08:16:31;13.90;99.90
38456;DHT22;24237;50.106;20.014;2024-03-22T08:18:57;13.90;99.90
38456;DHT22;24237;50.106;20.014;2024-03-22T08:21:23;13.90;99.90
38456;DHT22;24237;50.106;20.014;2024-03-22T08:23:50;13.90;99.90
38456;DHT22;24237;50.106;20.014;2024-03-22T08:26:17;14.00;79.80
38456;DHT22;24237;50.106;20.014;2024-03-22T08:28:42;13.70;99.90
38456;DHT22;24237;50.106;20.014;2024-03-22T08:31:08;13.70;99.90
38456;DHT22;24237;50.106;20.014;2024-03-22T08:33:33;14.10;48.60
38456;DHT22;24237;50.106;20.014;2024-03-22T08:35:59;14.30;1.00
38456;DHT22;24237;50.106;20.014;2024-03-22T08:38:26;14.50;99.90
38456;DHT22;24237;50.106;20.014;2024-03-22T08:40:52;14.50;99.90
38456;DHT22;24237;50.106;20.014;2024-03-22T08:43:18;14.60;99.90
38456;DHT22;24237;50.106;20.014;2024-03-22T08:45:43;14.60;99.90
38456;DHT22;24237;50.106;20.014;2024-03-22T08:48:09;14.60;99.90
38456;DHT22;24237;50.106;20.014;2024-03-22T08:50:35;14.60;99.90
38456;DHT22;24237;50.106;20.014;2024-03-22T08:53:00;14.70;99.90
38456;DHT22;24237;50.106;20.014;2024-03-22T08:55:29;14.70;83.90
38456;DHT22;24237;50.106;20.014;2024-03-22T08:57:55;14.70;78.10
38456;DHT22;24237;50.106;20.014;2024-03-22T09:00:21;14.70;1.00
38456;DHT22;24237;50.106;20.014;2024-03-22T09:02:47;14.70;18.20
38456;DHT22;24237;50.106;20.014;2024-03-22T09:05:12;15.20;1.00
38456;DHT22;24237;50.106;20.014;2024-03-22T09:07:38;15.30;99.90
38456;DHT22;24237;50.106;20.014;2024-03-22T09:10:05;15.40;99.90
38456;DHT22;24237;50.106;20.014;2024-03-22T09:12:30;15.70;99.90
38456;DHT22;24237;50.106;20.014;2024-03-22T09:14:56;15.60;99.80
38456;DHT22;24237;50.106;20.014;2024-03-22T09:17:21;15.50;20.80
38456;DHT22;24237;50.106;20.014;2024-03-22T09:19:47;15.20;99.90
38456;DHT22;24237;50.106;20.014;2024-03-22T09:22:13;15.00;99.90
38456;DHT22;24237;50.106;20.014;2024-03-22T09:24:40;15.20;99.90
38456;DHT22;24237;50.106;20.014;2024-03-22T09:27:05;15.30;99.90
38456;DHT22;24237;50.106;20.014;2024-03-22T09:29:34;15.00;45.80
38456;DHT22;24237;50.106;20.014;2024-03-22T09:32:00;15.10;73.10
38456;DHT22;24237;50.106;20.014;2024-03-22T09:34:25;15.00;20.00
38456;DHT22;24237;50.106;20.014;2024-03-22T09:36:51;15.10;1.00
38456;DHT22;24237;50.106;20.014;2024-03-22T09:39:17;14.90;1.00
38456;DHT22;24237;50.106;20.014;2024-03-22T09:41:43;15.00;1.00
38456;DHT22;24237;50.106;20.014;2024-03-22T09:44:13;14.80;99.90
38456;DHT22;24237;50.106;20.014;2024-03-22T09:46:42;14.90;1.00
38456;DHT22;24237;50.106;20.014;2024-03-22T09:49:12;14.70;99.90
38456;DHT22;24237;50.106;20.014;2024-03-22T09:51:38;14.30;99.90
38456;DHT22;24237;50.106;20.014;2024-03-22T09:54:04;14.20;1.00
38456;DHT22;24237;50.106;20.014;2024-03-22T09:56:31;14.00;1.00
38456;DHT22;24237;50.106;20.014;2024-03-22T09:58:57;14.10;1.00
38456;DHT22;24237;50.106;20.014;2024-03-22T10:01:24;14.30;1.00
38456;DHT22;24237;50.106;20.014;2024-03-22T10:03:54;14.50;1.00
38456;DHT22;24237;50.106;20.014;2024-03-22T10:06:20;14.50;1.00
38456;DHT22;24237;50.106;20.014;2024-03-22T10:08:46;14.10;1.00
38456;DHT22;24237;50.106;20.014;2024-03-22T10:11:11;14.20;1.00
38456;DHT22;24237;50.106;20.014;2024-03-22T10:13:37;14.40;1.00
38456;DHT22;24237;50.106;20.014;2024-03-22T10:16:03;14.40;99.90
38456;DHT22;24237;50.106;20.014;2024-03-22T10:18:29;14.50;99.90
38456;DHT22;24237;50.106;20.014;2024-03-22T10:21:04;14.60;99.90
38456;DHT22;24237;50.106;20.014;2024-03-22T10:23:31;14.40;99.90
38456;DHT22;24237;50.106;20.014;2024-03-22T10:25:57;14.10;99.90
38456;DHT22;24237;50.106;20.014;2024-03-22T10:28:24;14.10;99.90
38456;DHT22;24237;50.106;20.014;2024-03-22T10:30:51;14.10;99.90
38456;DHT22;24237;50.106;20.014;2024-03-22T10:33:19;14.00;99.90
38456;DHT22;24237;50.106;20.014;2024-03-22T10:35:46;13.70;99.90
38456;DHT22;24237;50.106;20.014;2024-03-22T10:38:12;13.70;99.90
38456;DHT22;24237;50.106;20.014;2024-03-22T10:40:40;13.80;99.90
38456;DHT22;24237;50.106;20.014;2024-03-22T10:43:07;13.90;99.90
38456;DHT22;24237;50.106;20.014;2024-03-22T10:45:33;14.00;99.90
38456;DHT22;24237;50.106;20.014;2024-03-22T10:48:01;14.20;99.90
38456;DHT22;24237;50.106;20.014;2024-03-22T10:50:31;14.10;99.90
38456;DHT22;24237;50.106;20.014;2024-03-22T10:53:02;14.10;99.90
38456;DHT22;24237;50.106;20.014;2024-03-22T10:55:35;14.40;99.90
38456;DHT22;24237;50.106;20.014;2024-03-22T10:58:02;14.80;99.90
38456;DHT22;24237;50.106;20.014;2024-03-22T11:00:32;14.70;99.90
38456;DHT22;24237;50.106;20.014;2024-03-22T11:02:58;14.60;99.90
38456;DHT22;24237;50.106;20.014;2024-03-22T11:05:26;14.70;99.90
38456;DHT22;24237;50.106;20.014;2024-03-22T11:08:01;14.70;99.90
38456;DHT22;24237;50.106;20.014;2024-03-22T11:10:33;14.50;99.90
38456;DHT22;24237;50.106;20.014;2024-03-22T11:13:06;14.50;99.90
38456;DHT22;24237;50.106;20.014;2024-03-22T11:15:33;14.50;99.90
38456;DHT22;24237;50.106;20.014;2024-03-22T11:17:59;14.70;99.90
38456;DHT22;24237;50.106;20.014;2024-03-22T11:20:25;15.00;99.90
38456;DHT22;24237;50.106;20.014;2024-03-22T11:22:52;15.30;31.60
38456;DHT22;24237;50.106;20.014;2024-03-22T11:25:18;15.30;19.00
38456;DHT22;24237;50.106;20.014;2024-03-22T11:27:45;15.50;24.10
38456;DHT22;24237;50.106;20.014;2024-03-22T11:30:11;15.80;1.00
38456;DHT22;24237;50.106;20.014;2024-03-22T11:32:36;16.00;1.00
38456;DHT22;24237;50.106;20.014;2024-03-22T11:35:11;16.20;1.00
38456;DHT22;24237;50.106;20.014;2024-03-22T11:37:38;16.10;1.00
38456;DHT22;24237;50.106;20.014;2024-03-22T11:40:05;16.00;1.00
38456;DHT22;24237;50.106;20.014;2024-03-22T11:42:34;16.10;1.00
38456;DHT22;24237;50.106;20.014;2024-03-22T11:45:01;16.60;99.90
38456;DHT22;24237;50.106;20.014;2024-03-22T11:47:28;16.70;99.90
38456;DHT22;24237;50.106;20.014;2024-03-22T11:49:55;16.60;99.90
38456;DHT22;24237;50.106;20.014;2024-03-22T11:52:27;16.20;99.90
38456;DHT22;24237;50.106;20.014;2024-03-22T11:54:52;16.40;99.90
38456;DHT22;24237;50.106;20.014;2024-03-22T11:57:21;16.10;99.90
38456;DHT22;24237;50.106;20.014;2024-03-22T11:59:47;15.80;99.90
38456;DHT22;24237;50.106;20.014;2024-03-22T12:02:13;16.30;99.90
38456;DHT22;24237;50.106;20.014;2024-03-22T12:04:56;17.20;99.90
38456;DHT22;24237;50.106;20.014;2024-03-22T12:07:22;17.50;99.90
38456;DHT22;24237;50.106;20.014;2024-03-22T12:09:49;17.30;99.90
38456;DHT22;24237;50.106;20.014;2024-03-22T12:12:14;17.80;69.50
38456;DHT22;24237;50.106;20.014;2024-03-22T12:14:40;17.90;26.00
38456;DHT22;24237;50.106;20.014;2024-03-22T12:17:07;17.80;1.00
38456;DHT22;24237;50.106;20.014;2024-03-22T12:19:33;17.10;9.30
38456;DHT22;24237;50.106;20.014;2024-03-22T12:21:59;16.80;42.20
38456;DHT22;24237;50.106;20.014;2024-03-22T12:24:26;16.40;91.10
38456;DHT22;24237;50.106;20.014;2024-03-22T12:26:55;16.10;99.90
38456;DHT22;24237;50.106;20.014;2024-03-22T12:29:20;16.20;99.90
38456;DHT22;24237;50.106;20.014;2024-03-22T12:31:46;16.20;99.90
38456;DHT22;24237;50.106;20.014;2024-03-22T12:34:12;16.30;99.90
38456;DHT22;24237;50.106;20.014;2024-03-22T12:36:38;16.30;99.90
38456;DHT22;24237;50.106;20.014;2024-03-22T12:39:04;16.10;99.90
38456;DHT22;24237;50.106;20.014;2024-03-22T12:41:30;16.10;99.90
38456;DHT22;24237;50.106;20.014;2024-03-22T12:43:57;15.90;99.90
38456;DHT22;24237;50.106;20.014;2024-03-22T12:46:23;15.60;99.90
38456;DHT22;24237;50.106;20.014;2024-03-22T12:48:50;15.90;99.90
38456;DHT22;24237;50.106;20.014;2024-03-22T12:51:16;15.90;99.90
38456;DHT22;24237;50.106;20.014;2024-03-22T12:53:41;15.90;99.90
38456;DHT22;24237;50.106;20.014;2024-03-22T12:56:07;15.80;99.90
38456;DHT22;24237;50.106;20.014;2024-03-22T12:58:33;15.60;99.90
38456;DHT22;24237;50.106;20.014;2024-03-22T13:00:59;15.80;99.90
38456;DHT22;24237;50.106;20.014;2024-03-22T13:03:26;15.70;99.90
38456;DHT22;24237;50.106;20.014;2024-03-22T13:05:52;15.80;99.90
38456;DHT22;24237;50.106;20.014;2024-03-22T13:08:19;15.70;99.90
38456;DHT22;24237;50.106;20.014;2024-03-22T13:10:45;15.70;99.90
38456;DHT22;24237;50.106;20.014;2024-03-22T13:13:11;15.60;99.90
38456;DHT22;24237;50.106;20.014;2024-03-22T13:15:38;15.50;99.90
38456;DHT22;24237;50.106;20.014;2024-03-22T13:18:04;15.30;99.90
38456;DHT22;24237;50.106;20.014;2024-03-22T13:20:30;15.10;99.90
38456;DHT22;24237;50.106;20.014;2024-03-22T13:22:56;15.00;99.90
38456;DHT22;24237;50.106;20.014;2024-03-22T13:25:22;15.00;99.90
38456;DHT22;24237;50.106;20.014;2024-03-22T13:27:47;15.00;99.90
38456;DHT22;24237;50.106;20.014;2024-03-22T13:30:14;15.10;99.90
38456;DHT22;24237;50.106;20.014;2024-03-22T13:32:40;15.30;99.90
38456;DHT22;24237;50.106;20.014;2024-03-22T13:35:06;15.50;99.90
38456;DHT22;24237;50.106;20.014;2024-03-22T13:37:32;15.50;99.90
38456;DHT22;24237;50.106;20.014;2024-03-22T13:39:58;15.40;99.90
38456;DHT22;24237;50.106;20.014;2024-03-22T13:42:24;15.50;99.90
38456;DHT22;24237;50.106;20.014;2024-03-22T13:44:50;15.70;99.90
38456;DHT22;24237;50.106;20.014;2024-03-22T13:47:15;16.00;99.90
38456;DHT22;24237;50.106;20.014;2024-03-22T13:49:41;15.80;99.90
38456;DHT22;24237;50.106;20.014;2024-03-22T13:52:08;15.60;99.90
38456;DHT22;24237;50.106;20.014;2024-03-22T13:54:34;15.80;99.90
38456;DHT22;24237;50.106;20.014;2024-03-22T13:57:00;16.20;99.90
38456;DHT22;24237;50.106;20.014;2024-03-22T13:59:27;15.50;99.90
38456;DHT22;24237;50.106;20.014;2024-03-22T14:01:53;15.60;99.90
38456;DHT22;24237;50.106;20.014;2024-03-22T14:04:19;15.90;99.90
38456;DHT22;24237;50.106;20.014;2024-03-22T14:06:47;16.10;99.90
38456;DHT22;24237;50.106;20.014;2024-03-22T14:09:13;16.40;99.90
38456;DHT22;24237;50.106;20.014;2024-03-22T14:11:39;16.40;99.90
38456;DHT22;24237;50.106;20.014;2024-03-22T14:14:05;16.20;99.90
38456;DHT22;24237;50.106;20.014;2024-03-22T14:16:31;15.80;99.90
38456;DHT22;24237;50.106;20.014;2024-03-22T14:18:56;15.70;99.90
38456;DHT22;24237;50.106;20.014;2024-03-22T14:21:22;15.60;99.90
38456;DHT22;24237;50.106;20.014;2024-03-22T14:23:49;15.50;99.90
38456;DHT22;24237;50.106;20.014;2024-03-22T14:26:18;15.60;99.90
38456;DHT22;24237;50.106;20.014;2024-03-22T14:28:44;15.50;99.90
38456;DHT22;24237;50.106;20.014;2024-03-22T14:31:10;15.60;99.90
38456;DHT22;24237;50.106;20.014;2024-03-22T14:33:36;15.30;99.90
38456;DHT22;24237;50.106;20.014;2024-03-22T14:36:07;15.50;99.90
38456;DHT22;24237;50.106;20.014;2024-03-22T14:38:33;15.20;99.90
38456;DHT22;24237;50.106;20.014;2024-03-22T14:40:59;15.10;99.90
38456;DHT22;24237;50.106;20.014;2024-03-22T14:43:25;15.50;99.90
38456;DHT22;24237;50.106;20.014;2024-03-22T14:45:52;15.60;99.90
38456;DHT22;24237;50.106;20.014;2024-03-22T14:48:21;15.80;99.90
38456;DHT22;24237;50.106;20.014;2024-03-22T14:50:48;16.00;99.90
38456;DHT22;24237;50.106;20.014;2024-03-22T14:53:14;15.90;99.90
38456;DHT22;24237;50.106;20.014;2024-03-22T14:55:54;15.70;99.90
38456;DHT22;24237;50.106;20.014;2024-03-22T14:58:23;15.70;99.90
38456;DHT22;24237;50.106;20.014;2024-03-22T15:00:57;15.60;99.90
38456;DHT22;24237;50.106;20.014;2024-03-22T15:03:22;15.70;99.90
38456;DHT22;24237;50.106;20.014;2024-03-22T15:05:50;15.80;99.90
38456;DHT22;24237;50.106;20.014;2024-03-22T15:08:17;16.10;99.90
38456;DHT22;24237;50.106;20.014;2024-03-22T15:10:43;16.20;89.60
38456;DHT22;24237;50.106;20.014;2024-03-22T15:13:09;16.00;96.60
38456;DHT22;24237;50.106;20.014;2024-03-22T15:15:36;15.90;98.60